Time;durP1;ratioP1;P1;durP2;ratioP2;P2;SDS_P1;SDS_P2;PMS_P1;PMS_P2;Temp;Humidity;BMP_temperature;BMP_pressure;BME280_temperature;BME280_humidity;BME280_pressure;Samples;Min_cycle;Max_cycle;Signal;HPM_P1;HPM_P2
2023/02/23 00:01:25;;;;;;;57.58;31.50;;;9.90;99.90;;;;;;6065685;23;92397;-79
2023/02/23 00:03:55;;;;;;;58.92;31.98;;;9.90;99.90;;;;;;6063544;23;97651;-78
2023/02/23 00:06:23;;;;;;;57.78;31.60;;;9.90;99.90;;;;;;6065122;23;95304;-78
2023/02/23 00:08:51;;;;;;;55.00;31.13;;;9.80;99.90;;;;;;6064836;23;92381;-78
2023/02/23 00:11:19;;;;;;;59.17;32.00;;;9.80;99.90;;;;;;6088119;23;92436;-78
2023/02/23 00:13:51;;;;;;;60.03;32.42;;;9.70;99.90;;;;;;6063112;23;95657;-78
2023/02/23 00:16:21;;;;;;;58.25;31.25;;;9.70;99.90;;;;;;6088091;23;95508;-78
2023/02/23 00:18:49;;;;;;;55.25;31.55;;;9.70;99.90;;;;;;6063541;23;92421;-78
2023/02/23 00:21:17;;;;;;;57.70;33.15;;;9.60;99.90;;;;;;6063902;23;91803;-78
2023/02/23 00:23:53;;;;;;;55.28;31.75;;;9.60;99.90;;;;;;6065092;23;93323;-78
2023/02/23 00:26:23;;;;;;;56.90;32.22;;;9.60;99.90;;;;;;6064936;23;93294;-78
2023/02/23 00:28:51;;;;;;;56.85;30.70;;;9.50;99.90;;;;;;6061921;23;94884;-78
2023/02/23 00:31:24;;;;;;;55.30;31.85;;;9.50;99.90;;;;;;6039070;23;92490;-78
2023/02/23 00:33:58;;;;;;;58.47;32.38;;;9.50;99.90;;;;;;6065020;23;93596;-79
2023/02/23 00:36:28;;;;;;;59.10;33.08;;;9.50;99.90;;;;;;6065001;23;92397;-78
2023/02/23 00:38:59;;;;;;;56.03;31.17;;;9.50;99.90;;;;;;6065762;23;92281;-78
2023/02/23 00:41:29;;;;;;;58.30;31.67;;;9.40;99.90;;;;;;6040282;23;92400;-78
2023/02/23 00:43:58;;;;;;;59.47;32.30;;;9.50;99.90;;;;;;6066486;23;92404;-78
2023/02/23 00:46:28;;;;;;;60.60;32.22;;;9.50;99.90;;;;;;6089419;23;95658;-79
2023/02/23 00:48:57;;;;;;;57.80;31.67;;;9.50;99.90;;;;;;6040186;23;92415;-78
2023/02/23 00:51:26;;;;;;;61.97;32.33;;;9.50;99.90;;;;;;6064989;23;92472;-78
2023/02/23 00:53:54;;;;;;;55.03;31.58;;;9.50;99.90;;;;;;6062563;23;98102;-78
2023/02/23 00:56:21;;;;;;;58.15;32.30;;;9.50;99.90;;;;;;6064432;23;96490;-78
2023/02/23 00:58:48;;;;;;;54.28;30.42;;;9.50;99.90;;;;;;6040299;23;93023;-78
2023/02/23 01:01:16;;;;;;;61.83;32.72;;;9.50;99.90;;;;;;6064874;23;92464;-79
2023/02/23 01:03:44;;;;;;;57.92;32.80;;;9.50;99.90;;;;;;6065958;23;93236;-79
2023/02/23 01:06:13;;;;;;;60.80;32.88;;;9.50;99.90;;;;;;6088653;23;95941;-78
2023/02/23 01:08:49;;;;;;;58.13;32.45;;;9.60;99.90;;;;;;6088539;23;92453;-78
2023/02/23 01:11:22;;;;;;;57.72;32.20;;;9.60;99.90;;;;;;6090095;23;91777;-78
2023/02/23 01:13:52;;;;;;;57.90;31.98;;;9.60;99.90;;;;;;6088950;23;96019;-78
2023/02/23 01:16:21;;;;;;;60.28;31.95;;;9.70;99.90;;;;;;6040450;23;95534;-78
2023/02/23 01:18:48;;;;;;;58.13;33.17;;;9.70;99.90;;;;;;6087208;23;95795;-78
2023/02/23 01:21:23;;;;;;;54.20;31.35;;;9.70;99.90;;;;;;6064699;23;92448;-78
2023/02/23 01:23:51;;;;;;;59.28;33.10;;;9.80;99.90;;;;;;6064572;23;93058;-78
2023/02/23 01:26:19;;;;;;;53.78;30.90;;;9.80;99.90;;;;;;6064241;23;95477;-78
2023/02/23 01:28:51;;;;;;;58.50;32.58;;;9.80;99.90;;;;;;6088958;23;92385;-79
2023/02/23 01:31:19;;;;;;;53.17;30.15;;;9.80;99.90;;;;;;6066557;23;92631;-78
2023/02/23 01:33:46;;;;;;;59.10;31.70;;;9.80;99.90;;;;;;6064011;23;96177;-78
2023/02/23 01:36:13;;;;;;;56.67;32.17;;;9.80;99.90;;;;;;6089217;23;95633;-78
2023/02/23 01:38:40;;;;;;;59.60;32.45;;;9.90;99.90;;;;;;6089301;23;93037;-79
2023/02/23 01:41:07;;;;;;;55.90;30.60;;;9.90;99.90;;;;;;6064537;23;92391;-78
2023/02/23 01:43:35;;;;;;;58.28;31.50;;;9.90;99.90;;;;;;6064693;23;95521;-78
2023/02/23 01:46:03;;;;;;;55.83;31.15;;;9.90;99.90;;;;;;6064252;23;98314;-78
2023/02/23 01:48:34;;;;;;;54.10;31.30;;;9.90;99.90;;;;;;6064381;23;92481;-78
2023/02/23 01:51:12;;;;;;;55.92;30.23;;;9.90;99.90;;;;;;6088552;23;92594;-78
2023/02/23 01:53:43;;;;;;;55.75;31.42;;;10.00;99.90;;;;;;6088863;23;93110;-78
2023/02/23 01:56:20;;;;;;;62.05;31.98;;;9.90;99.90;;;;;;6088719;23;94025;-78
2023/02/23 01:58:51;;;;;;;66.55;33.40;;;9.90;99.90;;;;;;6040329;23;92485;-78
2023/02/23 02:01:18;;;;;;;62.50;33.78;;;9.90;99.90;;;;;;6040765;23;91778;-78
2023/02/23 02:04:04;;;;;;;59.92;33.05;;;9.90;99.90;;;;;;6063510;23;95578;-78
2023/02/23 02:06:34;;;;;;;58.78;31.85;;;9.90;99.90;;;;;;6063887;23;95622;-78
2023/02/23 02:09:07;;;;;;;60.10;31.80;;;9.90;99.90;;;;;;6062150;23;94855;-78
2023/02/23 02:11:38;;;;;;;61.08;33.95;;;9.90;99.90;;;;;;6064745;23;92466;-78
2023/02/23 02:14:07;;;;;;;55.55;32.20;;;9.90;99.90;;;;;;6088238;23;93545;-78
2023/02/23 02:17:01;;;;;;;62.80;33.88;;;9.90;99.90;;;;;;6065932;23;93048;-78
2023/02/23 02:19:28;;;;;;;62.63;32.78;;;10.00;99.90;;;;;;6040224;23;92785;-78
2023/02/23 02:22:03;;;;;;;63.15;34.35;;;9.90;99.90;;;;;;6089073;23;92424;-78
2023/02/23 02:24:39;;;;;;;62.25;32.67;;;9.90;99.90;;;;;;6039909;23;95965;-78
2023/02/23 02:27:16;;;;;;;61.83;33.10;;;10.00;99.90;;;;;;6064436;23;95410;-78
2023/02/23 02:30:13;;;;;;;66.22;34.17;;;9.90;99.90;;;;;;6088742;23;92427;-78
2023/02/23 02:33:18;;;;;;;64.80;34.97;;;10.00;99.90;;;;;;6088886;23;92321;-78
2023/02/23 02:35:48;;;;;;;65.07;34.78;;;10.00;99.90;;;;;;6038868;23;98430;-78
2023/02/23 02:38:24;;;;;;;65.95;35.45;;;9.90;99.90;;;;;;6039803;23;98529;-78
2023/02/23 02:40:54;;;;;;;68.65;35.65;;;10.00;99.90;;;;;;6088706;23;92409;-78
2023/02/23 02:43:34;;;;;;;62.78;36.47;;;10.00;99.90;;;;;;6088451;23;92289;-78
2023/02/23 02:46:08;;;;;;;70.60;36.65;;;10.00;99.90;;;;;;6088766;23;93079;-78
2023/02/23 02:49:01;;;;;;;62.80;34.92;;;10.00;99.90;;;;;;6065798;23;92978;-78
2023/02/23 02:51:38;;;;;;;63.20;34.85;;;10.00;99.90;;;;;;6088812;23;92527;-78
2023/02/23 02:54:17;;;;;;;66.57;36.63;;;10.00;99.90;;;;;;6088916;23;91901;-78
2023/02/23 02:56:47;;;;;;;66.53;34.65;;;10.00;99.90;;;;;;6088731;23;95507;-78
2023/02/23 04:18:02;;;;;;;69.68;36.17;;;10.00;99.90;;;;;;6064657;23;95757;-78
2023/02/23 04:20:29;;;;;;;72.43;36.78;;;10.00;99.90;;;;;;6089320;23;92848;-78
2023/02/23 04:22:56;;;;;;;68.68;36.67;;;10.00;99.90;;;;;;6066801;23;92834;-78
2023/02/23 04:25:23;;;;;;;79.88;37.15;;;10.00;99.90;;;;;;6066877;23;92412;-78
2023/02/23 04:27:50;;;;;;;75.68;37.13;;;10.00;99.90;;;;;;6065004;23;95550;-78
2023/02/23 04:30:19;;;;;;;73.22;38.08;;;10.00;99.90;;;;;;6089073;23;95346;-78
2023/02/23 04:32:46;;;;;;;81.05;37.58;;;10.00;99.90;;;;;;6040501;23;92322;-78
2023/02/23 04:35:13;;;;;;;70.63;36.53;;;10.00;99.90;;;;;;6064882;23;92469;-78
2023/02/23 04:37:40;;;;;;;77.43;37.13;;;10.00;99.90;;;;;;6065173;23;93211;-79
2023/02/23 04:40:08;;;;;;;70.40;36.92;;;10.00;99.90;;;;;;6064425;23;95724;-79
2023/02/23 04:42:37;;;;;;;81.80;39.78;;;10.10;99.90;;;;;;6089308;23;92389;-78
2023/02/23 04:45:04;;;;;;;78.45;38.22;;;10.10;99.90;;;;;;6066807;23;91665;-79
2023/02/23 04:47:31;;;;;;;72.30;37.63;;;10.00;99.90;;;;;;6066269;23;93585;-78
2023/02/23 04:49:58;;;;;;;78.18;37.97;;;10.00;99.90;;;;;;6089235;23;92995;-78
2023/02/23 04:52:25;;;;;;;80.20;37.03;;;10.00;99.90;;;;;;6065388;23;94765;-78
2023/02/23 04:54:52;;;;;;;85.13;39.03;;;10.00;99.90;;;;;;6066717;23;92467;-79
2023/02/23 04:57:19;;;;;;;72.55;37.35;;;10.00;99.90;;;;;;6088900;23;95724;-78
2023/02/23 04:59:46;;;;;;;78.60;37.85;;;10.00;99.90;;;;;;6064715;23;95242;-78
2023/02/23 05:02:13;;;;;;;78.55;39.05;;;10.00;99.90;;;;;;6066557;23;92795;-78
2023/02/23 05:04:40;;;;;;;71.10;36.80;;;10.00;99.90;;;;;;6089763;23;92279;-78
2023/02/23 05:07:07;;;;;;;74.30;37.83;;;10.00;99.90;;;;;;6088904;23;93563;-79
2023/02/23 05:09:34;;;;;;;80.53;36.55;;;10.00;99.90;;;;;;6089297;23;95458;-78
2023/02/23 05:12:01;;;;;;;78.28;36.90;;;10.00;99.90;;;;;;6064499;23;93024;-78
2023/02/23 05:14:28;;;;;;;76.97;37.03;;;9.90;99.90;;;;;;6064906;23;92403;-78
2023/02/23 05:16:55;;;;;;;73.88;37.03;;;9.90;99.90;;;;;;6065016;23;95646;-78
2023/02/23 05:19:22;;;;;;;73.68;35.88;;;9.90;99.90;;;;;;6066250;23;95300;-78
2023/02/23 05:21:49;;;;;;;81.60;37.63;;;9.90;99.90;;;;;;6066665;23;92389;-79
2023/02/23 05:24:17;;;;;;;82.65;38.22;;;10.00;99.90;;;;;;6066811;23;92395;-79
2023/02/23 05:26:44;;;;;;;75.13;36.22;;;9.90;99.90;;;;;;6089111;23;95842;-79
2023/02/23 05:29:11;;;;;;;85.57;37.85;;;10.00;99.90;;;;;;6088992;23;94097;-78
2023/02/23 05:31:38;;;;;;;77.43;39.50;;;9.90;99.90;;;;;;6089137;23;92453;-78
2023/02/23 05:34:05;;;;;;;75.38;38.00;;;9.90;99.90;;;;;;6066941;23;91744;-78
2023/02/23 05:36:32;;;;;;;79.28;38.08;;;9.90;99.90;;;;;;6089105;23;93255;-78
2023/02/23 05:38:59;;;;;;;74.00;36.03;;;9.90;99.90;;;;;;6064767;23;92958;-78
2023/02/23 05:41:26;;;;;;;71.07;36.35;;;9.90;99.90;;;;;;6087702;23;94815;-78
2023/02/23 05:43:54;;;;;;;73.90;36.10;;;9.90;99.90;;;;;;6064817;23;92524;-78
2023/02/23 05:46:23;;;;;;;78.10;36.85;;;9.90;99.90;;;;;;6089115;23;93110;-78
2023/02/23 05:48:55;;;;;;;79.75;37.80;;;9.90;99.90;;;;;;6066225;23;92307;-78
2023/02/23 05:51:22;;;;;;;83.00;37.78;;;10.00;99.90;;;;;;6064462;23;92442;-78
2023/02/23 05:53:49;;;;;;;79.53;36.65;;;9.90;99.90;;;;;;6065046;23;92364;-78
2023/02/23 05:56:19;;;;;;;78.28;36.05;;;9.90;99.90;;;;;;6064379;23;92353;-78
2023/02/23 05:59:04;;;;;;;76.47;36.55;;;9.90;99.90;;;;;;6089618;23;93057;-78
2023/02/23 06:01:31;;;;;;;84.47;38.17;;;9.90;99.90;;;;;;6066410;23;92329;-78
2023/02/23 06:03:58;;;;;;;79.75;36.40;;;9.90;99.90;;;;;;6066603;23;92285;-79
2023/02/23 06:06:27;;;;;;;73.95;37.60;;;9.90;99.90;;;;;;6062465;23;96359;-78
2023/02/23 06:08:55;;;;;;;78.82;37.13;;;9.90;99.90;;;;;;6088407;23;95773;-78
2023/02/23 06:11:22;;;;;;;81.43;36.78;;;9.90;99.90;;;;;;6066136;23;92411;-78
2023/02/23 06:13:49;;;;;;;77.85;36.90;;;9.90;99.90;;;;;;6088466;23;97052;-78
2023/02/23 06:16:16;;;;;;;78.75;37.50;;;9.90;99.90;;;;;;6066233;23;93154;-78
2023/02/23 06:18:43;;;;;;;78.43;38.35;;;9.90;99.90;;;;;;6089042;23;93017;-79
2023/02/23 06:21:10;;;;;;;85.35;37.78;;;9.80;99.90;;;;;;6064599;23;92480;-78
2023/02/23 06:23:37;;;;;;;79.30;35.83;;;9.80;99.90;;;;;;6089302;23;91683;-79
2023/02/23 06:26:05;;;;;;;85.03;37.20;;;9.80;99.90;;;;;;6088593;23;93196;-78
2023/02/23 06:28:32;;;;;;;80.10;36.88;;;9.80;99.90;;;;;;6065675;23;92350;-79
2023/02/23 06:30:59;;;;;;;75.53;34.72;;;9.80;99.90;;;;;;6087271;23;94846;-78
2023/02/23 06:33:26;;;;;;;78.93;35.72;;;9.80;99.90;;;;;;6064263;23;92934;-78
2023/02/23 06:35:54;;;;;;;79.75;35.85;;;9.90;99.90;;;;;;6063387;23;95426;-78
2023/02/23 06:38:22;;;;;;;84.95;36.88;;;9.90;99.90;;;;;;6087868;23;93076;-78
2023/02/23 06:40:49;;;;;;;81.03;37.15;;;9.90;99.90;;;;;;6088629;23;93240;-78
2023/02/23 06:43:16;;;;;;;79.18;35.38;;;9.90;99.90;;;;;;6088704;23;92487;-78
2023/02/23 06:45:45;;;;;;;69.43;33.95;;;9.90;99.90;;;;;;6063839;23;95729;-78
2023/02/23 06:48:12;;;;;;;80.07;35.17;;;9.90;99.90;;;;;;6066043;23;92940;-78
2023/02/23 06:50:39;;;;;;;74.82;34.53;;;9.90;99.90;;;;;;6063684;23;92513;-78
2023/02/23 06:53:07;;;;;;;66.47;32.90;;;9.90;99.90;;;;;;6066006;23;92461;-78
2023/02/23 06:55:34;;;;;;;74.82;34.35;;;9.90;99.90;;;;;;6063746;23;103111;-78
2023/02/23 06:58:02;;;;;;;70.50;33.05;;;9.90;99.90;;;;;;6065623;23;95392;-78
2023/02/23 07:00:29;;;;;;;63.67;31.23;;;9.90;99.90;;;;;;6065759;23;92629;-78
2023/02/23 07:02:56;;;;;;;63.58;31.45;;;9.90;99.90;;;;;;6065870;23;92446;-78
2023/02/23 07:05:23;;;;;;;60.97;31.77;;;9.90;99.90;;;;;;6063862;23;93209;-78
2023/02/23 07:07:50;;;;;;;67.60;31.05;;;9.90;99.90;;;;;;6065744;23;92995;-78
2023/02/23 07:10:18;;;;;;;60.80;30.65;;;9.90;99.90;;;;;;6062905;23;103963;-78
2023/02/23 07:12:45;;;;;;;65.30;30.60;;;9.90;99.90;;;;;;6088982;23;91644;-78
2023/02/23 07:15:16;;;;;;;65.47;29.85;;;10.00;99.90;;;;;;6064299;23;93275;-78
2023/02/23 07:17:47;;;;;;;61.95;29.25;;;10.00;99.90;;;;;;6065497;23;93000;-78
2023/02/23 07:20:15;;;;;;;60.60;29.17;;;10.00;99.90;;;;;;6062788;23;94852;-78
2023/02/23 07:22:43;;;;;;;59.78;29.50;;;10.00;99.90;;;;;;6065518;23;92423;-78
2023/02/23 07:25:10;;;;;;;55.42;27.88;;;10.00;99.90;;;;;;6065332;23;93103;-78
2023/02/23 07:27:37;;;;;;;53.13;27.85;;;10.00;99.90;;;;;;6065146;23;93682;-78
2023/02/23 07:30:05;;;;;;;54.70;27.70;;;10.00;99.90;;;;;;6088304;23;92560;-78
2023/02/23 07:32:32;;;;;;;57.80;27.17;;;10.00;99.90;;;;;;6087914;23;98317;-78
2023/02/23 07:34:59;;;;;;;50.20;26.60;;;10.00;99.90;;;;;;6088111;23;93162;-78
2023/02/23 07:37:26;;;;;;;55.15;27.05;;;10.10;99.90;;;;;;6065568;23;93081;-78
2023/02/23 07:39:53;;;;;;;51.30;26.27;;;10.10;99.90;;;;;;6063235;23;92439;-78
2023/02/23 07:42:20;;;;;;;53.45;26.58;;;10.10;99.90;;;;;;6064098;23;92423;-78
2023/02/23 07:44:46;;;;;;;48.50;24.60;;;10.10;99.90;;;;;;6061663;23;98517;-78
2023/02/23 07:47:13;;;;;;;50.38;24.10;;;10.10;99.90;;;;;;6063542;23;98144;-78
2023/02/23 07:49:41;;;;;;;49.90;25.58;;;10.20;99.90;;;;;;6064624;23;92516;-78
2023/02/23 07:52:08;;;;;;;44.83;23.65;;;10.20;99.90;;;;;;6089354;23;93688;-78
2023/02/23 07:54:35;;;;;;;49.20;23.23;;;10.20;99.90;;;;;;6064725;23;93421;-79
2023/02/23 07:57:02;;;;;;;48.05;24.38;;;10.20;99.90;;;;;;6065020;23;92881;-79
2023/02/23 07:59:29;;;;;;;49.40;24.40;;;10.20;99.90;;;;;;6066389;23;92335;-78
2023/02/23 08:01:56;;;;;;;49.30;25.90;;;10.20;99.90;;;;;;6066990;23;91666;-78
2023/02/23 08:04:23;;;;;;;43.28;22.48;;;10.30;99.90;;;;;;6064724;23;93113;-78
2023/02/23 08:06:50;;;;;;;42.20;21.75;;;10.30;99.90;;;;;;6064153;23;95674;-78
2023/02/23 08:09:16;;;;;;;45.08;22.63;;;10.30;99.90;;;;;;6086593;23;94872;-78
2023/02/23 08:11:43;;;;;;;42.40;21.55;;;10.30;99.90;;;;;;6066053;23;92388;-78
2023/02/23 08:14:11;;;;;;;37.72;21.23;;;10.30;99.90;;;;;;6064330;23;95703;-78
2023/02/23 08:16:38;;;;;;;41.95;21.83;;;10.30;99.90;;;;;;6066286;23;94199;-78
2023/02/23 08:19:05;;;;;;;42.10;21.58;;;10.30;99.90;;;;;;6064538;23;92426;-79
2023/02/23 08:21:32;;;;;;;37.85;20.65;;;10.30;99.90;;;;;;6066375;23;92385;-78
2023/02/23 08:23:59;;;;;;;42.80;21.65;;;10.30;99.90;;;;;;6089297;23;93288;-78
2023/02/23 08:26:26;;;;;;;43.03;22.70;;;10.20;99.90;;;;;;6065379;23;92813;-79
2023/02/23 08:28:54;;;;;;;42.92;21.63;;;10.20;99.90;;;;;;6064279;23;92490;-79
2023/02/23 08:31:22;;;;;;;40.70;20.08;;;10.10;99.90;;;;;;6040668;23;92388;-79
2023/02/23 08:33:51;;;;;;;39.45;21.55;;;10.10;99.90;;;;;;6038162;23;98015;-79
2023/02/23 08:36:19;;;;;;;36.63;20.98;;;10.10;99.90;;;;;;6039992;23;97504;-79
2023/02/23 08:38:46;;;;;;;38.40;20.90;;;10.20;99.90;;;;;;6063849;23;92415;-79
2023/02/23 08:41:14;;;;;;;41.75;21.50;;;10.20;99.90;;;;;;6089252;23;92511;-79
2023/02/23 08:43:41;;;;;;;36.58;19.92;;;10.20;99.90;;;;;;6088936;23;93550;-79
2023/02/23 08:46:08;;;;;;;36.47;20.38;;;10.30;99.90;;;;;;6088184;23;108811;-79
2023/02/23 08:48:35;;;;;;;38.03;21.00;;;10.30;99.90;;;;;;6064350;23;92461;-79
2023/02/23 08:51:02;;;;;;;32.70;19.67;;;10.40;99.90;;;;;;6065155;23;91768;-78
2023/02/23 08:53:29;;;;;;;34.00;18.83;;;10.40;99.90;;;;;;6064751;23;93115;-79
2023/02/23 08:56:01;;;;;;;33.72;18.50;;;10.40;99.90;;;;;;6064194;23;95703;-79
2023/02/23 08:58:32;;;;;;;34.78;19.85;;;10.50;99.90;;;;;;6087916;23;94849;-79
2023/02/23 09:00:59;;;;;;;34.35;19.90;;;10.50;99.90;;;;;;6066165;23;92412;-79
2023/02/23 09:03:29;;;;;;;33.35;19.15;;;10.50;99.90;;;;;;6063914;23;95675;-79
2023/02/23 09:06:09;;;;;;;33.40;18.98;;;10.40;99.90;;;;;;6063821;23;95481;-79
2023/02/23 09:08:37;;;;;;;33.05;18.60;;;10.40;99.90;;;;;;6064565;23;92426;-78
2023/02/23 09:11:04;;;;;;;30.60;18.40;;;10.40;99.90;;;;;;6065579;23;101132;-79
2023/02/23 09:13:31;;;;;;;31.98;18.30;;;10.50;99.90;;;;;;6039547;23;95829;-79
2023/02/23 09:15:58;;;;;;;31.42;17.50;;;10.60;99.90;;;;;;6064433;23;95714;-79
2023/02/23 09:18:29;;;;;;;30.00;16.92;;;10.60;99.90;;;;;;6063980;23;92367;-79
2023/02/23 09:20:56;;;;;;;29.67;17.88;;;10.70;99.90;;;;;;6064481;23;92462;-79
2023/02/23 09:23:28;;;;;;;33.38;18.40;;;10.70;99.90;;;;;;6063069;23;95597;-78
2023/02/23 09:25:55;;;;;;;27.45;18.05;;;10.80;99.90;;;;;;6065801;23;95340;-79
2023/02/23 09:28:22;;;;;;;31.17;18.50;;;10.70;99.90;;;;;;6089203;23;92414;-79
2023/02/23 09:30:49;;;;;;;32.50;17.75;;;10.80;99.90;;;;;;6063419;23;101962;-79
2023/02/23 09:33:16;;;;;;;29.63;17.20;;;10.80;99.90;;;;;;6088727;23;95931;-79
2023/02/23 09:35:43;;;;;;;28.05;17.63;;;10.80;99.90;;;;;;6065795;23;93020;-79
2023/02/23 09:38:10;;;;;;;28.08;17.40;;;10.70;99.90;;;;;;6066359;23;92454;-79
2023/02/23 09:41:07;;;;;;;32.55;18.20;;;10.70;99.90;;;;;;6089555;23;92450;-79
2023/02/23 09:43:50;;;;;;;30.38;16.83;;;10.70;99.90;;;;;;6065472;23;93304;-79
2023/02/23 09:46:20;;;;;;;31.67;18.50;;;10.60;99.90;;;;;;6088795;23;93064;-79
2023/02/23 09:48:47;;;;;;;34.97;19.55;;;10.50;99.90;;;;;;6064413;23;94726;-79
2023/02/23 09:51:19;;;;;;;35.05;18.55;;;10.40;99.90;;;;;;6066333;23;92424;-79
2023/02/23 09:53:53;;;;;;;35.22;19.85;;;10.40;99.90;;;;;;6065593;23;92312;-79
2023/02/23 09:56:30;;;;;;;37.63;19.55;;;10.30;99.90;;;;;;6089233;23;96025;-79
2023/02/23 09:59:01;;;;;;;34.13;19.40;;;10.30;99.90;;;;;;6066055;23;92369;-79
2023/02/23 10:01:31;;;;;;;34.25;18.98;;;10.30;99.90;;;;;;6088834;23;92461;-78
2023/02/23 10:04:10;;;;;;;39.58;20.38;;;10.30;99.90;;;;;;6065471;23;93209;-78
2023/02/23 10:06:40;;;;;;;30.77;17.63;;;10.30;99.90;;;;;;6066623;23;93035;-79
2023/02/23 10:09:15;;;;;;;34.75;18.63;;;10.30;99.90;;;;;;6089029;23;92970;-79
2023/02/23 10:11:57;;;;;;;32.20;16.75;;;10.30;99.90;;;;;;6064950;23;92538;-79
2023/02/23 10:14:46;;;;;;;33.53;18.02;;;10.30;99.90;;;;;;6064514;23;95508;-79
2023/02/23 10:17:23;;;;;;;30.17;18.30;;;10.30;99.90;;;;;;6064155;23;98073;-79
2023/02/23 10:20:19;;;;;;;34.22;19.02;;;10.30;99.90;;;;;;6064379;23;92329;-79
2023/02/23 10:22:48;;;;;;;35.95;17.88;;;10.40;99.90;;;;;;6060283;23;92451;-78
2023/02/23 10:25:25;;;;;;;34.30;17.60;;;10.50;99.90;;;;;;6088394;23;100091;-78
2023/02/23 10:27:54;;;;;;;44.20;19.42;;;10.50;99.90;;;;;;6065928;23;92920;-79
2023/02/23 10:30:32;;;;;;;31.48;17.55;;;10.50;99.90;;;;;;6088574;23;92540;-79
2023/02/23 10:33:23;;;;;;;34.78;18.27;;;10.60;99.90;;;;;;6066571;23;92251;-79
2023/02/23 10:35:55;;;;;;;34.97;18.40;;;10.50;99.90;;;;;;6064202;23;93185;-79
2023/02/23 10:38:37;;;;;;;30.58;15.98;;;10.40;99.90;;;;;;6084810;23;93016;-79
2023/02/23 10:41:05;;;;;;;37.03;18.13;;;10.50;99.90;;;;;;6064390;23;94803;-79
2023/02/23 10:43:32;;;;;;;33.67;17.00;;;10.50;99.90;;;;;;6088907;23;92449;-79
2023/02/23 10:46:00;;;;;;;37.50;18.50;;;10.70;99.90;;;;;;6065545;23;92386;-79
2023/02/23 10:48:41;;;;;;;35.38;19.00;;;10.80;99.90;;;;;;6088487;23;95550;-79
2023/02/23 10:51:27;;;;;;;32.97;16.88;;;11.00;99.90;;;;;;6064053;23;92386;-79
2023/02/23 10:53:55;;;;;;;37.10;20.05;;;11.10;99.90;;;;;;6088576;23;92327;-79
2023/02/23 10:56:23;;;;;;;35.75;18.98;;;11.10;99.90;;;;;;6088420;23;93241;-79
2023/02/23 10:58:51;;;;;;;34.63;18.70;;;11.30;99.90;;;;;;6063342;23;105412;-79
2023/02/23 11:01:43;;;;;;;36.42;18.92;;;11.40;99.90;;;;;;6066030;23;92930;-79
2023/02/23 11:04:29;;;;;;;33.35;17.50;;;11.60;99.90;;;;;;6083148;23;92541;-79
2023/02/23 11:07:20;;;;;;;36.53;19.90;;;11.70;99.90;;;;;;6064147;23;96443;-77
2023/02/23 11:09:50;;;;;;;33.25;18.00;;;11.90;99.90;;;;;;6088285;23;97894;-77
2023/02/23 11:12:20;;;;;;;38.92;18.65;;;12.00;99.90;;;;;;6064065;23;92447;-77
2023/02/23 11:14:50;;;;;;;38.95;19.33;;;12.10;99.90;;;;;;6066116;23;92783;-77
2023/02/23 11:17:32;;;;;;;41.25;19.95;;;12.10;99.90;;;;;;6065516;23;93002;-77
2023/02/23 11:20:18;;;;;;;36.20;19.35;;;12.20;99.90;;;;;;6065435;23;92987;-77
2023/02/23 11:22:45;;;;;;;44.25;21.95;;;12.20;99.90;;;;;;6065603;23;92833;-77
2023/02/23 11:25:17;;;;;;;38.95;19.42;;;12.20;99.90;;;;;;6065528;23;98230;-78
2023/02/23 11:27:50;;;;;;;39.10;20.92;;;12.20;99.90;;;;;;6065523;23;93092;-78
2023/02/23 11:30:23;;;;;;;37.63;19.17;;;12.10;99.90;;;;;;6063543;23;95539;-78
2023/02/23 11:32:56;;;;;;;40.93;21.90;;;12.00;99.90;;;;;;6064530;23;94794;-77
2023/02/23 11:35:25;;;;;;;43.83;21.45;;;12.00;99.90;;;;;;6039917;23;93007;-77
2023/02/23 11:37:53;;;;;;;38.10;19.95;;;12.00;99.90;;;;;;6088239;23;93378;-77
2023/02/23 11:40:28;;;;;;;39.55;20.90;;;12.10;99.90;;;;;;6039199;23;95475;-77
2023/02/23 11:43:04;;;;;;;42.55;21.02;;;12.00;99.90;;;;;;6065280;23;92405;-77
2023/02/23 11:45:36;;;;;;;41.90;21.27;;;11.90;99.90;;;;;;6063874;23;92437;-77
2023/02/23 11:48:04;;;;;;;46.10;22.48;;;11.90;99.90;;;;;;6088205;23;93033;-77
2023/02/23 11:50:34;;;;;;;42.30;22.63;;;11.80;99.90;;;;;;6063351;23;95828;-77
2023/02/23 11:53:14;;;;;;;46.42;21.50;;;11.70;99.90;;;;;;6088344;23;92320;-77
2023/02/23 11:55:53;;;;;;;46.20;21.75;;;11.60;99.90;;;;;;6065551;23;92384;-77
2023/02/23 11:58:38;;;;;;;44.83;22.77;;;11.60;99.90;;;;;;6063485;23;95570;-77
2023/02/23 12:01:11;;;;;;;47.47;22.33;;;11.50;99.90;;;;;;6087835;23;95526;-77
2023/02/23 12:03:46;;;;;;;44.67;22.80;;;11.30;99.90;;;;;;6065544;23;92310;-77
2023/02/23 12:06:29;;;;;;;50.42;23.27;;;11.20;99.90;;;;;;6088239;23;92880;-77
2023/02/23 12:09:03;;;;;;;45.90;20.55;;;11.10;99.90;;;;;;6087701;23;95633;-77
2023/02/23 12:11:36;;;;;;;45.95;21.83;;;11.10;99.90;;;;;;6064854;23;93002;-77
2023/02/23 12:14:09;;;;;;;51.13;21.05;;;11.00;99.90;;;;;;6063311;23;92403;-77
2023/02/23 12:16:44;;;;;;;50.42;18.80;;;10.90;99.90;;;;;;6039871;23;91663;-77
2023/02/23 12:19:25;;;;;;;49.97;18.90;;;10.90;99.90;;;;;;6039072;23;94601;-77
2023/02/23 12:22:19;;;;;;;47.45;18.02;;;10.80;99.90;;;;;;6039293;23;95860;-77
2023/02/23 12:24:52;;;;;;;53.43;18.53;;;10.80;99.90;;;;;;6062433;23;94890;-77
2023/02/23 12:27:33;;;;;;;53.53;17.60;;;10.80;99.90;;;;;;6065326;23;93346;-77
2023/02/23 12:30:23;;;;;;;48.75;19.33;;;10.70;99.90;;;;;;6087552;23;93236;-77
2023/02/23 12:32:59;;;;;;;51.78;19.23;;;10.70;99.90;;;;;;6062667;23;93034;-77
2023/02/23 12:35:41;;;;;;;52.17;19.45;;;10.70;99.90;;;;;;6088778;23;92448;-77
2023/02/23 12:38:32;;;;;;;52.80;20.00;;;10.70;99.90;;;;;;6066299;23;92946;-77
2023/02/23 12:41:13;;;;;;;52.45;20.67;;;10.80;99.90;;;;;;6089215;23;95720;-77
2023/02/23 12:44:27;;;;;;;54.17;18.98;;;10.80;99.90;;;;;;6089771;23;95573;-77
2023/02/23 12:46:58;;;;;;;46.03;17.30;;;11.00;99.90;;;;;;6034537;23;92875;-77
2023/02/23 12:49:48;;;;;;;52.03;18.90;;;11.10;99.90;;;;;;6040494;23;92409;-77
2023/02/23 12:52:20;;;;;;;50.88;17.83;;;11.30;99.90;;;;;;6064655;23;94878;-78
2023/02/23 12:54:47;;;;;;;50.72;20.05;;;11.30;99.90;;;;;;6088931;23;94504;-77
2023/02/23 12:57:14;;;;;;;46.95;17.65;;;11.40;99.90;;;;;;6066401;23;93340;-78
2023/02/23 12:59:50;;;;;;;47.25;18.15;;;11.40;99.90;;;;;;6066372;23;92399;-78
2023/02/23 13:02:28;;;;;;;52.13;19.42;;;11.50;99.90;;;;;;6065917;23;93250;-77
2023/02/23 13:05:14;;;;;;;51.80;17.35;;;11.50;99.90;;;;;;6064882;23;92832;-77
2023/02/23 13:08:19;;;;;;;49.60;18.02;;;11.50;99.90;;;;;;6066315;23;92323;-77
2023/02/23 13:11:04;;;;;;;48.17;18.33;;;11.50;99.90;;;;;;6066325;23;91666;-77
2023/02/23 13:13:49;;;;;;;39.90;15.52;;;11.40;99.90;;;;;;6065961;23;93227;-77
2023/02/23 13:16:43;;;;;;;43.25;16.55;;;11.20;99.90;;;;;;6066000;23;93083;-77
2023/02/23 13:19:37;;;;;;;50.37;18.67;;;11.20;99.90;;;;;;6087641;23;95010;-77
2023/02/23 13:22:16;;;;;;;;;;;11.10;99.90;;;;;;6065403;23;92344;-77
2023/02/23 13:24:48;;;;;;;45.05;17.23;;;10.90;99.90;;;;;;6090941;23;95604;-77
2023/02/23 13:27:24;;;;;;;42.70;16.13;;;10.80;99.90;;;;;;6089066;23;95653;-77
2023/02/23 13:29:54;;;;;;;40.13;15.95;;;10.80;99.90;;;;;;6066112;23;92327;-77
2023/02/23 13:32:35;;;;;;;49.75;17.63;;;10.80;99.90;;;;;;6065802;23;92502;-77
2023/02/23 13:35:14;;;;;;;48.35;16.38;;;10.70;99.90;;;;;;6088857;23;95826;-77
2023/02/23 13:38:02;;;;;;;48.63;16.83;;;10.70;99.90;;;;;;6089334;23;92925;-77
2023/02/23 13:40:41;;;;;;;45.17;15.95;;;10.60;99.90;;;;;;6040193;23;92391;-77
2023/02/23 13:43:21;;;;;;;48.88;16.50;;;10.50;99.90;;;;;;6088977;23;92988;-77
2023/02/23 13:46:17;;;;;;;45.50;15.90;;;10.50;99.90;;;;;;6064051;23;95626;-77
2023/02/23 13:48:58;;;;;;;54.58;19.38;;;10.50;99.90;;;;;;6065959;23;95402;-77
2023/02/23 13:51:46;;;;;;;59.58;19.42;;;10.50;99.90;;;;;;6088169;23;92467;-77
2023/02/23 13:54:13;;;;;;;61.92;21.17;;;10.50;99.90;;;;;;6064152;23;92466;-77
2023/02/23 13:56:54;;;;;;;58.15;16.73;;;10.40;99.90;;;;;;6065305;23;102016;-77
2023/02/23 13:59:28;;;;;;;59.38;18.10;;;10.50;99.90;;;;;;6064327;23;93226;-77
2023/02/23 14:01:55;;;;;;;58.40;17.25;;;10.40;99.90;;;;;;6063978;23;92428;-77
2023/02/23 14:04:34;;;;;;;51.53;16.15;;;10.30;99.90;;;;;;6089019;23;91806;-77
2023/02/23 14:07:20;;;;;;;57.80;17.92;;;10.20;99.90;;;;;;6065928;23;93175;-77
2023/02/23 14:10:08;;;;;;;61.47;19.42;;;10.30;99.90;;;;;;6065377;23;93070;-77
2023/02/23 14:12:41;;;;;;;57.40;18.45;;;10.30;99.90;;;;;;6064422;23;94777;-77
2023/02/23 14:15:24;;;;;;;60.35;19.98;;;10.40;99.90;;;;;;6066208;23;92518;-77